Time;durP1;ratioP1;P1;durP2;ratioP2;P2;SDS_P1;SDS_P2;PMS_P1;PMS_P2;Temp;Humidity;BMP_temperature;BMP_pressure;BME280_temperature;BME280_humidity;BME280_pressure;Samples;Min_cycle;Max_cycle;Signal;HPM_P1;HPM_P2
2022/03/15 00:00:13;;;;;;;154.13;60.40;;;-1.60;65.20;;;;;;5052832;28;20082;-74
2022/03/15 00:02:39;;;;;;;143.98;54.08;;;-1.60;65.60;;;;;;5053032;28;20029;-76
2022/03/15 00:05:05;;;;;;;140.57;57.03;;;-1.60;65.50;;;;;;5052600;28;20379;-73
2022/03/15 00:07:31;;;;;;;140.55;60.35;;;-1.60;65.40;;;;;;5053110;28;20036;-74
2022/03/15 00:09:56;;;;;;;154.82;62.00;;;-1.60;65.50;;;;;;5052753;28;20021;-73
2022/03/15 00:12:22;;;;;;;156.48;62.70;;;-1.60;65.50;;;;;;5052931;28;20108;-77
2022/03/15 00:14:48;;;;;;;166.27;64.22;;;-1.60;65.50;;;;;;5051342;28;20017;-76
2022/03/15 00:17:13;;;;;;;179.13;74.15;;;-1.70;65.40;;;;;;5051510;28;20033;-73
2022/03/15 00:19:39;;;;;;;168.25;72.28;;;-1.70;65.30;;;;;;5052797;28;20029;-76
2022/03/15 00:22:06;;;;;;;200.38;77.60;;;-1.70;65.40;;;;;;5052590;28;20025;-73
2022/03/15 00:24:33;;;;;;;212.15;83.78;;;-1.70;65.90;;;;;;5050983;28;20057;-77
2022/03/15 00:27:00;;;;;;;229.00;90.78;;;-1.70;66.40;;;;;;5052725;28;20383;-73
2022/03/15 00:29:25;;;;;;;244.60;102.75;;;-1.70;66.40;;;;;;5052819;28;20032;-73
2022/03/15 00:31:51;;;;;;;186.18;72.18;;;-1.70;67.10;;;;;;5051322;28;20111;-76
2022/03/15 00:34:17;;;;;;;183.00;74.20;;;-1.80;66.70;;;;;;5052476;28;20448;-74
2022/03/15 00:36:42;;;;;;;181.50;73.75;;;-1.90;66.30;;;;;;5051326;28;20021;-76
2022/03/15 00:39:08;;;;;;;165.75;68.75;;;-1.90;66.10;;;;;;5052539;28;20049;-73
2022/03/15 00:41:34;;;;;;;168.75;72.63;;;-2.00;66.00;;;;;;5052595;28;20024;-73
2022/03/15 00:44:00;;;;;;;176.23;66.88;;;-1.90;66.00;;;;;;5052114;28;20419;-74
2022/03/15 00:46:26;;;;;;;183.98;70.80;;;-1.90;65.80;;;;;;5051806;28;20025;-73
2022/03/15 00:48:52;;;;;;;170.85;68.80;;;-1.90;66.10;;;;;;5055053;28;20025;-76
2022/03/15 00:51:17;;;;;;;170.88;67.72;;;-1.90;66.80;;;;;;5056219;28;20151;-73
2022/03/15 00:53:43;;;;;;;163.55;64.45;;;-1.90;66.70;;;;;;5056266;28;20024;-73
2022/03/15 00:56:08;;;;;;;186.13;70.88;;;-1.90;66.60;;;;;;5055857;28;20029;-72
2022/03/15 00:58:34;;;;;;;131.05;53.17;;;-1.90;66.70;;;;;;5056140;28;20025;-74
2022/03/15 01:01:00;;;;;;;120.85;48.40;;;-1.90;66.40;;;;;;5054815;28;20121;-73
2022/03/15 01:03:26;;;;;;;134.75;56.15;;;-1.90;66.00;;;;;;5054743;28;20047;-73
2022/03/15 01:05:52;;;;;;;131.27;52.42;;;-1.90;66.40;;;;;;5054414;28;20037;-73
2022/03/15 01:08:17;;;;;;;134.35;52.97;;;-1.90;66.40;;;;;;5055939;28;20031;-72
2022/03/15 01:10:44;;;;;;;135.15;55.90;;;-2.00;66.60;;;;;;5054654;28;20025;-76
2022/03/15 01:13:11;;;;;;;153.98;63.42;;;-2.00;66.90;;;;;;5054549;28;20490;-72
2022/03/15 01:15:41;;;;;;;147.27;61.20;;;-2.00;68.10;;;;;;5055720;28;20025;-73
2022/03/15 01:18:07;;;;;;;144.35;61.33;;;-2.10;69.20;;;;;;5055642;28;20024;-76
2022/03/15 01:20:32;;;;;;;150.80;62.92;;;-2.20;69.90;;;;;;5055688;28;20071;-76
2022/03/15 01:22:58;;;;;;;142.70;56.58;;;-2.20;70.30;;;;;;5055293;28;20029;-73
2022/03/15 01:25:24;;;;;;;113.75;46.45;;;-2.30;71.10;;;;;;5055364;28;20032;-77
2022/03/15 01:27:51;;;;;;;104.88;46.15;;;-2.30;70.60;;;;;;5055624;28;20036;-73
2022/03/15 01:30:16;;;;;;;140.55;54.70;;;-2.30;69.50;;;;;;5054251;28;20013;-73
2022/03/15 01:32:42;;;;;;;114.88;47.08;;;-2.30;69.00;;;;;;5054204;28;20025;-73
2022/03/15 01:35:07;;;;;;;115.60;48.85;;;-2.40;68.90;;;;;;5053920;28;20036;-76
2022/03/15 01:37:33;;;;;;;106.95;41.92;;;-2.30;68.90;;;;;;5054157;28;20021;-76
2022/03/15 01:39:59;;;;;;;94.60;37.45;;;-2.30;68.60;;;;;;5055289;28;20425;-76
2022/03/15 01:42:25;;;;;;;94.30;44.05;;;-2.30;68.20;;;;;;5055360;28;20533;-73
2022/03/15 01:44:51;;;;;;;82.43;36.28;;;-2.30;68.80;;;;;;5053945;28;20104;-73
2022/03/15 01:47:17;;;;;;;87.85;40.30;;;-2.30;69.20;;;;;;5054991;28;20029;-73
2022/03/15 01:49:43;;;;;;;100.60;40.53;;;-2.30;69.50;;;;;;5055201;28;20017;-73
2022/03/15 01:52:15;;;;;;;95.00;40.67;;;-2.40;69.80;;;;;;5053707;28;20406;-73
2022/03/15 01:54:41;;;;;;;;;;;-2.40;70.40;;;;;;5055698;28;20021;-74
2022/03/15 01:57:08;;;;;;;91.57;39.33;;;-2.40;70.90;;;;;;5070263;28;19904;-76
2022/03/15 01:59:35;;;;;;;98.97;42.50;;;-2.40;70.80;;;;;;5054423;28;20021;-76
2022/03/15 02:02:01;;;;;;;283.80;111.03;;;-2.40;70.80;;;;;;5054781;28;20021;-73
2022/03/15 02:04:27;;;;;;;419.73;161.90;;;-2.40;70.90;;;;;;5053568;28;20047;-74
2022/03/15 02:07:22;;;;;;;325.77;132.07;;;-2.40;70.70;;;;;;5054514;28;20031;-73
2022/03/15 02:09:49;;;;;;;322.63;123.53;;;-2.40;70.50;;;;;;5058879;28;20171;-77
2022/03/15 02:12:15;;;;;;;209.35;82.38;;;-2.40;70.90;;;;;;5054769;28;20013;-73
2022/03/15 02:14:41;;;;;;;174.68;75.95;;;-2.40;71.10;;;;;;5053434;28;20375;-73
2022/03/15 02:17:06;;;;;;;122.05;50.75;;;-2.40;70.90;;;;;;5054491;28;20036;-76
2022/03/15 02:19:33;;;;;;;167.15;68.25;;;-2.40;70.10;;;;;;5054733;28;20028;-76
2022/03/15 02:21:59;;;;;;;175.18;69.07;;;-2.40;69.40;;;;;;5054582;28;20041;-76
2022/03/15 02:24:25;;;;;;;645.42;292.40;;;-2.40;69.70;;;;;;5054418;28;20060;-77
2022/03/15 02:26:51;;;;;;;458.77;176.07;;;-2.40;69.60;;;;;;5054277;28;20470;-73
2022/03/15 02:29:18;;;;;;;358.63;134.50;;;-2.40;70.60;;;;;;5053151;28;20017;-73
2022/03/15 02:31:44;;;;;;;364.02;137.90;;;-2.50;71.20;;;;;;5054326;28;20021;-73
2022/03/15 02:34:10;;;;;;;105.75;44.83;;;-2.50;71.00;;;;;;5052981;28;20533;-73
2022/03/15 02:36:35;;;;;;;72.03;32.85;;;-2.60;70.70;;;;;;5054059;28;20104;-73
2022/03/15 02:39:01;;;;;;;70.90;31.40;;;-2.60;70.20;;;;;;5054269;28;20044;-76
2022/03/15 02:41:27;;;;;;;62.17;30.75;;;-2.60;69.80;;;;;;5052936;28;20033;-74
2022/03/15 02:43:54;;;;;;;92.05;38.33;;;-2.50;69.80;;;;;;5054009;28;20159;-74
2022/03/15 02:46:20;;;;;;;142.98;59.97;;;-2.50;70.00;;;;;;5053803;28;20498;-70
2022/03/15 02:48:45;;;;;;;156.07;65.30;;;-2.50;71.10;;;;;;5054050;28;20025;-74
2022/03/15 02:51:12;;;;;;;146.50;64.60;;;-2.60;72.10;;;;;;5053998;28;20021;-70
2022/03/15 02:53:38;;;;;;;132.55;61.65;;;-2.50;73.10;;;;;;5054054;28;20378;-71
2022/03/15 02:56:10;;;;;;;112.93;50.55;;;-2.50;73.50;;;;;;5052342;28;20025;-71
2022/03/15 02:58:35;;;;;;;106.30;45.22;;;-2.50;73.40;;;;;;5053964;28;20070;-74
2022/03/15 03:01:01;;;;;;;91.18;42.22;;;-2.50;73.00;;;;;;5053804;28;20100;-74
2022/03/15 03:03:27;;;;;;;99.50;47.83;;;-2.50;72.50;;;;;;5053712;28;20151;-74
2022/03/15 03:05:53;;;;;;;105.88;47.75;;;-2.50;72.50;;;;;;5053647;28;20057;-74
2022/03/15 03:08:27;;;;;;;113.05;49.95;;;-2.40;73.10;;;;;;5053561;28;20490;-74
2022/03/15 03:10:57;;;;;;;115.57;50.25;;;-2.50;74.80;;;;;;5052617;28;20025;-71
2022/03/15 03:13:26;;;;;;;87.60;43.50;;;-2.50;76.00;;;;;;5053616;28;20396;-70
2022/03/15 03:15:56;;;;;;;80.07;34.75;;;-2.50;75.70;;;;;;5053466;28;20029;-71
2022/03/15 03:18:23;;;;;;;74.38;33.30;;;-2.50;74.80;;;;;;5053357;28;20052;-71
2022/03/15 03:20:49;;;;;;;68.10;30.05;;;-2.60;73.30;;;;;;5053384;28;20032;-71
2022/03/15 03:23:15;;;;;;;74.28;34.15;;;-2.60;72.80;;;;;;5053307;28;20060;-74
2022/03/15 03:25:41;;;;;;;79.50;34.03;;;-2.60;72.40;;;;;;5053450;28;20039;-74
2022/03/15 03:28:07;;;;;;;83.03;39.83;;;-2.50;73.00;;;;;;5051754;28;20025;-70
2022/03/15 03:30:34;;;;;;;78.60;36.42;;;-2.50;74.70;;;;;;5053282;28;20032;-72
2022/03/15 03:32:59;;;;;;;82.65;35.90;;;-2.60;75.60;;;;;;5051956;28;20494;-71
2022/03/15 03:35:25;;;;;;;82.70;37.30;;;-2.60;75.70;;;;;;5053300;28;20021;-72
2022/03/15 03:37:51;;;;;;;67.00;31.70;;;-2.60;75.80;;;;;;5052919;28;20043;-71
2022/03/15 03:40:16;;;;;;;65.22;32.63;;;-2.70;75.80;;;;;;5053140;28;20442;-72
2022/03/15 03:42:42;;;;;;;69.70;30.15;;;-2.70;75.00;;;;;;5051883;28;20017;-71
2022/03/15 03:45:08;;;;;;;63.33;31.30;;;-2.80;74.30;;;;;;5052962;28;20061;-75
2022/03/15 03:47:33;;;;;;;68.63;31.35;;;-2.70;74.00;;;;;;5052820;28;20033;-71
2022/03/15 03:49:59;;;;;;;64.30;29.50;;;-2.80;73.50;;;;;;5052915;28;20021;-74
2022/03/15 03:52:25;;;;;;;71.25;31.42;;;-2.80;73.90;;;;;;5052955;28;20367;-75
2022/03/15 03:54:50;;;;;;;72.88;30.38;;;-2.70;74.10;;;;;;5051651;28;20486;-74
2022/03/15 03:57:16;;;;;;;69.13;32.45;;;-2.80;75.00;;;;;;5051666;28;20090;-71
2022/03/15 03:59:42;;;;;;;81.85;34.33;;;-2.80;75.80;;;;;;5053050;28;20494;-74
2022/03/15 04:02:07;;;;;;;66.28;31.83;;;-2.90;76.90;;;;;;5051590;28;20039;-71
2022/03/15 04:04:33;;;;;;;70.30;31.75;;;-2.90;76.80;;;;;;5051527;28;20033;-72
2022/03/15 04:07:01;;;;;;;66.07;29.92;;;-2.90;76.30;;;;;;5052845;28;20100;-71
2022/03/15 04:09:26;;;;;;;70.07;30.27;;;-2.90;75.80;;;;;;5052672;28;20017;-75
2022/03/15 04:11:52;;;;;;;74.27;30.50;;;-2.80;75.10;;;;;;5052769;28;20386;-74
2022/03/15 04:14:17;;;;;;;69.57;28.87;;;-2.80;74.70;;;;;;5051560;28;20490;-75
2022/03/15 04:16:43;;;;;;;64.75;27.58;;;-2.80;74.20;;;;;;5052800;28;20105;-71
2022/03/15 04:19:09;;;;;;;75.23;31.93;;;-2.90;74.30;;;;;;5052643;28;20031;-75
2022/03/15 04:21:35;;;;;;;93.07;31.77;;;-2.90;74.10;;;;;;5052343;28;20479;-71
2022/03/15 04:24:01;;;;;;;87.50;32.87;;;-2.90;74.30;;;;;;5056363;28;20039;-71
2022/03/15 04:26:27;;;;;;;76.30;29.73;;;-2.90;74.60;;;;;;5055506;28;20395;-74
2022/03/15 04:28:53;;;;;;;80.97;33.43;;;-3.00;74.90;;;;;;5056463;28;20087;-72
2022/03/15 04:31:19;;;;;;;65.70;31.33;;;-3.00;76.00;;;;;;5056746;28;20039;-74
2022/03/15 04:33:45;;;;;;;64.22;29.73;;;-3.10;76.80;;;;;;5056782;28;20025;-74
2022/03/15 04:36:11;;;;;;;82.10;34.83;;;-3.00;77.40;;;;;;5055186;28;20025;-71
2022/03/15 04:38:37;;;;;;;66.65;30.98;;;-3.10;77.70;;;;;;5054998;28;20427;-75
2022/03/15 04:41:05;;;;;;;68.23;30.37;;;-3.10;77.60;;;;;;5056496;28;20025;-72
2022/03/15 04:43:31;;;;;;;64.78;29.05;;;-3.10;77.70;;;;;;5056567;28;20021;-71
2022/03/15 04:45:57;;;;;;;67.95;28.67;;;-3.20;77.30;;;;;;5055860;28;20029;-71
2022/03/15 04:48:23;;;;;;;59.47;28.27;;;-3.20;77.10;;;;;;5054824;28;20032;-74
2022/03/15 04:50:49;;;;;;;61.85;27.70;;;-3.20;77.00;;;;;;5056435;28;20094;-70
2022/03/15 04:53:15;;;;;;;66.53;28.90;;;-3.20;76.90;;;;;;5056164;28;20037;-71
2022/03/15 04:55:41;;;;;;;61.85;28.38;;;-3.20;76.70;;;;;;5056275;28;20023;-71
2022/03/15 04:58:06;;;;;;;60.78;27.02;;;-3.20;76.40;;;;;;5055709;28;20017;-74
2022/03/15 05:00:32;;;;;;;60.78;27.83;;;-3.20;76.00;;;;;;5056201;28;20075;-74
2022/03/15 05:02:58;;;;;;;68.43;29.88;;;-3.20;76.00;;;;;;5054760;28;20025;-71
2022/03/15 05:05:23;;;;;;;65.70;28.92;;;-3.20;76.40;;;;;;5056067;28;20037;-71
2022/03/15 05:07:49;;;;;;;67.10;30.02;;;-3.20;76.60;;;;;;5054602;28;20535;-74
2022/03/15 05:13:00;;;;;;;105.75;32.83;;;-3.20;77.40;;;;;;5056152;28;20098;-74
2022/03/15 05:15:26;;;;;;;154.00;35.13;;;-3.10;77.40;;;;;;5055935;28;20024;-75
2022/03/15 05:17:52;;;;;;;87.60;32.10;;;-3.20;77.20;;;;;;5055664;28;20383;-74
2022/03/15 05:20:18;;;;;;;58.50;27.88;;;-3.20;76.70;;;;;;5055541;28;20033;-75
2022/03/15 05:22:44;;;;;;;61.00;27.73;;;-3.20;76.50;;;;;;5055718;28;20472;-70
2022/03/15 05:25:11;;;;;;;60.33;25.07;;;-3.20;76.10;;;;;;5055635;28;20127;-70
2022/03/15 05:27:37;;;;;;;61.20;26.25;;;-3.20;76.60;;;;;;5055649;28;20025;-74
2022/03/15 05:30:04;;;;;;;72.25;30.52;;;-3.20;76.90;;;;;;5053758;28;20028;-71
2022/03/15 05:32:29;;;;;;;67.10;30.17;;;-3.10;78.60;;;;;;5055241;28;20399;-71
2022/03/15 05:34:56;;;;;;;54.40;25.95;;;-3.20;79.20;;;;;;5054749;28;20025;-74
2022/03/15 05:37:21;;;;;;;52.10;23.20;;;-3.20;78.60;;;;;;5054169;28;20447;-71
2022/03/15 05:39:47;;;;;;;95.90;35.40;;;-3.20;78.20;;;;;;5055204;28;20048;-74
2022/03/15 05:42:13;;;;;;;89.00;32.13;;;-3.10;77.70;;;;;;5054069;28;20075;-71
2022/03/15 05:44:39;;;;;;;63.10;25.77;;;-3.10;77.50;;;;;;5054031;28;20061;-71
2022/03/15 05:47:05;;;;;;;49.83;24.50;;;-3.00;77.20;;;;;;5055185;28;20029;-74
2022/03/15 05:49:30;;;;;;;63.20;26.42;;;-2.90;76.90;;;;;;5055086;28;20163;-73
2022/03/15 05:51:56;;;;;;;52.00;25.98;;;-2.80;76.50;;;;;;5054985;28;20057;-70
2022/03/15 05:54:22;;;;;;;60.58;25.08;;;-2.70;75.90;;;;;;5053443;28;20053;-70
2022/03/15 05:56:47;;;;;;;61.80;27.38;;;-2.60;75.50;;;;;;5054985;28;20017;-70
2022/03/15 05:59:13;;;;;;;59.10;28.13;;;-2.50;76.90;;;;;;5053411;28;20025;-71
2022/03/15 06:01:39;;;;;;;71.88;28.42;;;-2.40;76.70;;;;;;5054846;28;20479;-74
2022/03/15 06:04:07;;;;;;;73.18;31.60;;;-2.30;77.00;;;;;;5054718;28;20032;-71
2022/03/15 06:06:33;;;;;;;105.20;37.75;;;-2.20;76.80;;;;;;5053556;28;20155;-70
2022/03/15 06:08:59;;;;;;;126.78;45.72;;;-2.00;76.30;;;;;;5054816;28;20029;-72
2022/03/15 06:11:24;;;;;;;129.80;48.38;;;-1.90;75.40;;;;;;5054526;28;20025;-73
2022/03/15 06:13:50;;;;;;;105.28;41.97;;;-1.70;74.50;;;;;;5051491;28;20024;-74
2022/03/15 06:16:16;;;;;;;103.75;42.58;;;-1.50;74.00;;;;;;5044967;28;20030;-74
2022/03/15 06:18:41;;;;;;;70.78;31.75;;;-1.30;73.40;;;;;;5048800;28;20104;-70
2022/03/15 06:21:07;;;;;;;52.75;26.55;;;-1.10;73.10;;;;;;5053438;28;20025;-70
2022/03/15 06:23:32;;;;;;;47.75;24.98;;;-0.90;73.10;;;;;;5040605;28;20045;-70
2022/03/15 06:25:58;;;;;;;61.88;29.10;;;-0.70;72.80;;;;;;5045049;28;20041;-71
2022/03/15 06:28:24;;;;;;;66.95;29.13;;;-0.50;72.70;;;;;;5053420;28;20044;-70
2022/03/15 06:30:49;;;;;;;81.13;30.08;;;-0.30;72.40;;;;;;5051681;28;20116;-71
2022/03/15 06:33:15;;;;;;;63.15;30.38;;;-0.10;72.00;;;;;;5053451;28;20037;-70
2022/03/15 06:35:46;;;;;;;82.45;32.85;;;0.20;71.50;;;;;;5051651;28;20079;-71
2022/03/15 06:38:12;;;;;;;238.73;71.53;;;0.30;70.40;;;;;;5053544;28;20462;-71
2022/03/15 06:40:40;;;;;;;243.02;84.00;;;0.60;69.50;;;;;;5051244;28;20024;-71
2022/03/15 06:43:06;;;;;;;222.50;69.78;;;0.70;69.70;;;;;;5053192;28;20406;-71
2022/03/15 06:45:32;;;;;;;154.23;55.25;;;1.00;69.20;;;;;;5051404;28;20433;-71
2022/03/15 06:47:58;;;;;;;181.65;59.92;;;1.20;68.20;;;;;;5051098;28;20039;-72
2022/03/15 06:50:24;;;;;;;233.32;83.32;;;1.50;67.70;;;;;;5053765;28;20021;-72
2022/03/15 06:52:49;;;;;;;127.07;48.70;;;1.70;66.00;;;;;;5053681;28;20466;-72
2022/03/15 06:55:16;;;;;;;202.98;70.75;;;2.00;63.10;;;;;;5052524;28;20021;-71
2022/03/15 06:57:42;;;;;;;203.10;65.70;;;2.20;62.00;;;;;;5052340;28;20025;-71
2022/03/15 07:00:11;;;;;;;110.15;40.65;;;2.50;59.80;;;;;;5051809;28;20025;-72
2022/03/15 07:02:36;;;;;;;99.05;39.65;;;2.70;58.60;;;;;;5051627;28;20025;-71
2022/03/15 07:05:03;;;;;;;117.88;45.45;;;2.90;56.40;;;;;;5050292;28;20044;-72
2022/03/15 07:07:28;;;;;;;90.85;37.25;;;3.10;55.90;;;;;;5051444;28;20025;-71
2022/03/15 07:09:54;;;;;;;79.43;34.28;;;3.30;55.80;;;;;;5051498;28;20028;-72
2022/03/15 07:12:20;;;;;;;68.47;31.20;;;3.50;55.50;;;;;;5050059;28;20394;-71
2022/03/15 07:14:47;;;;;;;71.38;32.22;;;3.70;54.90;;;;;;5050725;28;20017;-72
2022/03/15 07:17:12;;;;;;;85.25;38.53;;;3.90;54.20;;;;;;5051346;28;20020;-72
2022/03/15 07:19:38;;;;;;;101.50;46.58;;;4.10;53.20;;;;;;5051318;28;20040;-72
2022/03/15 07:22:06;;;;;;;63.78;32.67;;;4.30;51.30;;;;;;5049697;28;20024;-73
2022/03/15 07:24:32;;;;;;;45.45;26.92;;;4.40;50.80;;;;;;5051093;28;20053;-72
2022/03/15 07:26:58;;;;;;;48.63;25.85;;;4.60;50.10;;;;;;5050972;28;20074;-72
2022/03/15 07:29:24;;;;;;;43.42;22.42;;;4.80;49.80;;;;;;5053265;28;20021;-73
2022/03/15 07:31:49;;;;;;;63.28;23.98;;;4.90;49.00;;;;;;5053064;28;20040;-72
2022/03/15 07:34:15;;;;;;;47.67;24.00;;;5.20;48.80;;;;;;5051931;28;20067;-71
2022/03/15 07:36:40;;;;;;;44.50;23.15;;;5.30;48.80;;;;;;5051936;28;20031;-72
2022/03/15 07:39:06;;;;;;;49.38;23.48;;;5.50;48.50;;;;;;5053206;28;20021;-73
2022/03/15 07:41:34;;;;;;;44.83;22.85;;;5.60;47.50;;;;;;5053019;28;20057;-73
2022/03/15 07:44:00;;;;;;;51.78;23.42;;;5.80;47.40;;;;;;5053214;28;20036;-72
2022/03/15 07:46:25;;;;;;;45.03;22.02;;;6.00;46.90;;;;;;5053159;28;20490;-72
2022/03/15 07:48:51;;;;;;;48.40;23.63;;;6.10;46.50;;;;;;5053169;28;20021;-75
2022/03/15 07:51:16;;;;;;;46.65;22.80;;;6.20;46.00;;;;;;5052917;28;20021;-72
2022/03/15 07:53:42;;;;;;;49.95;22.70;;;6.40;46.20;;;;;;5053132;28;20099;-75
2022/03/15 07:56:08;;;;;;;37.72;20.60;;;6.50;46.20;;;;;;5052497;28;20028;-75
2022/03/15 07:58:34;;;;;;;42.50;20.67;;;6.60;45.70;;;;;;5051826;28;20075;-75
2022/03/15 08:01:00;;;;;;;36.55;19.27;;;6.70;45.30;;;;;;5052896;28;20478;-76
2022/03/15 08:03:25;;;;;;;39.88;21.35;;;6.80;44.70;;;;;;5052591;28;20021;-75
2022/03/15 08:05:51;;;;;;;35.25;20.40;;;6.90;45.00;;;;;;5052890;28;20036;-75
2022/03/15 08:08:17;;;;;;;40.25;21.35;;;7.10;44.60;;;;;;5052924;28;20534;-76
2022/03/15 08:10:43;;;;;;;38.58;19.45;;;7.10;44.20;;;;;;5053005;28;20060;-72
2022/03/15 08:13:10;;;;;;;39.53;20.65;;;7.20;43.80;;;;;;5052879;28;20028;-76
2022/03/15 08:15:36;;;;;;;41.38;20.58;;;7.30;44.40;;;;;;5051612;28;20036;-72
2022/03/15 08:18:03;;;;;;;38.10;19.83;;;7.40;44.80;;;;;;5052778;28;20017;-75
2022/03/15 08:20:39;;;;;;;38.85;19.45;;;7.50;43.90;;;;;;5052889;28;20013;-76
2022/03/15 08:23:05;;;;;;;37.00;20.75;;;7.60;43.60;;;;;;5052837;28;20033;-72
2022/03/15 08:25:31;;;;;;;38.42;18.67;;;7.70;43.70;;;;;;5052615;28;20437;-76
2022/03/15 08:27:57;;;;;;;37.15;19.15;;;7.90;44.00;;;;;;5051457;28;20060;-75
2022/03/15 08:30:23;;;;;;;41.78;20.55;;;8.00;43.50;;;;;;5052778;28;20505;-72
2022/03/15 08:32:49;;;;;;;34.85;20.05;;;8.10;43.70;;;;;;5052327;28;20021;-72
2022/03/15 08:35:14;;;;;;;34.63;18.75;;;8.20;43.20;;;;;;5052808;28;20017;-75
2022/03/15 08:37:42;;;;;;;39.97;19.77;;;8.30;43.50;;;;;;5051337;28;20175;-75
2022/03/15 08:40:08;;;;;;;34.28;20.65;;;8.30;43.20;;;;;;5051369;28;20013;-76
2022/03/15 08:42:34;;;;;;;33.33;18.35;;;8.40;43.80;;;;;;5052387;28;20029;-72
2022/03/15 08:45:00;;;;;;;36.35;20.08;;;8.50;44.10;;;;;;5052476;28;20398;-72
2022/03/15 08:47:26;;;;;;;36.40;19.67;;;8.40;43.70;;;;;;5052527;28;20033;-75
2022/03/15 08:49:52;;;;;;;33.28;18.88;;;8.50;43.60;;;;;;5052528;28;20021;-73
2022/03/15 08:52:17;;;;;;;30.52;19.10;;;8.70;45.00;;;;;;5052225;28;20510;-76
2022/03/15 08:54:43;;;;;;;31.30;17.77;;;8.70;43.80;;;;;;5052545;28;20017;-75
2022/03/15 08:57:09;;;;;;;28.80;18.42;;;8.90;44.10;;;;;;5052590;28;20017;-75
2022/03/15 08:59:34;;;;;;;35.90;17.75;;;9.00;44.50;;;;;;5052404;28;20025;-75
2022/03/15 09:02:01;;;;;;;31.70;18.35;;;9.00;44.20;;;;;;5051122;28;20087;-75
2022/03/15 09:04:27;;;;;;;30.35;19.05;;;9.10;43.80;;;;;;5052349;28;20017;-75
2022/03/15 09:06:53;;;;;;;32.33;17.88;;;9.20;43.70;;;;;;5052370;28;20439;-75
2022/03/15 09:09:21;;;;;;;32.13;18.25;;;9.30;43.70;;;;;;5054515;28;20059;-76
2022/03/15 09:11:47;;;;;;;31.02;17.52;;;9.40;43.60;;;;;;5054740;28;20029;-75
2022/03/15 09:14:14;;;;;;;26.80;14.90;;;9.50;42.80;;;;;;5055714;28;20028;-72
2022/03/15 09:16:40;;;;;;;26.33;14.05;;;9.60;43.20;;;;;;5055922;28;20036;-75
2022/03/15 09:19:06;;;;;;;24.90;13.90;;;9.70;44.00;;;;;;5054576;28;20424;-75
2022/03/15 09:21:32;;;;;;;22.90;12.48;;;9.90;44.50;;;;;;5055684;28;20376;-72
2022/03/15 09:23:58;;;;;;;20.77;13.27;;;10.00;45.00;;;;;;5054921;28;20060;-75
2022/03/15 09:26:24;;;;;;;17.88;12.38;;;10.20;44.90;;;;;;5055229;28;20108;-75
2022/03/15 09:28:51;;;;;;;20.90;11.73;;;10.30;44.70;;;;;;5054345;28;20156;-73
2022/03/15 09:31:23;;;;;;;21.65;12.07;;;10.50;45.30;;;;;;5055517;28;20171;-72
2022/03/15 09:33:48;;;;;;;20.95;11.35;;;10.60;45.40;;;;;;5055577;28;20032;-72
2022/03/15 09:36:15;;;;;;;20.60;10.75;;;10.60;45.00;;;;;;5055433;28;20033;-71
2022/03/15 09:38:41;;;;;;;17.42;10.57;;;10.80;45.80;;;;;;5055436;28;20025;-76
2022/03/15 09:41:07;;;;;;;53.55;25.85;;;10.90;46.30;;;;;;5054082;28;20028;-71
2022/03/15 09:43:38;;;;;;;41.33;20.55;;;10.80;44.50;;;;;;5055158;28;20474;-72
2022/03/15 09:46:08;;;;;;;29.85;17.08;;;10.90;44.00;;;;;;5053867;28;20043;-71
2022/03/15 09:48:35;;;;;;;22.05;13.95;;;11.00;44.00;;;;;;5054041;28;20025;-72
2022/03/15 09:51:04;;;;;;;22.08;12.57;;;11.20;44.00;;;;;;5055197;28;20466;-72
2022/03/15 09:53:34;;;;;;;26.88;15.93;;;11.20;42.40;;;;;;5055198;28;20103;-71
2022/03/15 09:56:00;;;;;;;26.38;13.40;;;11.30;42.70;;;;;;5055074;28;20075;-72
2022/03/15 09:58:26;;;;;;;21.95;13.50;;;11.50;43.10;;;;;;5054925;28;20036;-72
2022/03/15 10:00:55;;;;;;;30.05;17.25;;;11.50;42.20;;;;;;5054887;28;20021;-76
2022/03/15 10:03:21;;;;;;;29.10;16.88;;;11.50;42.00;;;;;;5053495;28;20029;-71
2022/03/15 10:05:49;;;;;;;25.63;15.57;;;11.60;41.60;;;;;;5055023;28;20033;-72
2022/03/15 10:08:15;;;;;;;68.70;30.63;;;11.70;41.90;;;;;;5054818;28;20039;-72
2022/03/15 10:10:42;;;;;;;71.55;30.92;;;11.80;41.70;;;;;;5055197;28;20067;-75
2022/03/15 10:13:08;;;;;;;89.30;39.15;;;11.90;41.80;;;;;;5054856;28;20091;-71
2022/03/15 10:15:34;;;;;;;59.80;24.73;;;11.90;41.50;;;;;;5054531;28;20032;-72
2022/03/15 10:18:04;;;;;;;38.80;19.27;;;11.90;41.10;;;;;;5054737;28;20021;-76
2022/03/15 10:20:38;;;;;;;32.80;15.60;;;11.90;41.80;;;;;;5054163;28;20486;-70
2022/03/15 10:23:04;;;;;;;20.30;13.05;;;12.00;41.40;;;;;;5054466;28;20029;-70
2022/03/15 10:25:32;;;;;;;22.90;14.30;;;12.00;41.80;;;;;;5053075;28;20040;-74
2022/03/15 10:28:05;;;;;;;37.83;17.85;;;12.10;42.40;;;;;;5054483;28;20530;-73
2022/03/15 10:30:31;;;;;;;24.85;14.18;;;12.20;41.80;;;;;;5054641;28;20112;-70
2022/03/15 10:32:58;;;;;;;29.83;14.95;;;12.20;42.30;;;;;;5053138;28;20029;-72
2022/03/15 10:35:27;;;;;;;27.60;13.93;;;12.20;41.40;;;;;;5052872;28;20021;-74
2022/03/15 10:37:54;;;;;;;19.50;13.00;;;12.40;41.90;;;;;;5054357;28;20033;-74
2022/03/15 10:40:40;;;;;;;27.05;13.73;;;12.50;41.80;;;;;;5054278;28;20029;-74
2022/03/15 10:43:09;;;;;;;32.42;15.07;;;12.50;41.80;;;;;;5052978;28;20032;-70
2022/03/15 10:45:36;;;;;;;37.33;17.85;;;12.40;41.40;;;;;;5053673;28;20029;-70
2022/03/15 10:48:12;;;;;;;23.98;13.18;;;12.40;41.70;;;;;;5054098;28;20036;-74
2022/03/15 10:51:02;;;;;;;23.13;13.73;;;12.40;42.90;;;;;;5054268;28;20017;-74
2022/03/15 10:53:37;;;;;;;25.73;15.32;;;12.50;42.60;;;;;;5053975;28;20035;-69
2022/03/15 10:56:20;;;;;;;23.27;12.98;;;12.60;42.60;;;;;;5051331;28;20047;-69
2022/03/15 10:58:50;;;;;;;44.15;17.65;;;12.60;43.00;;;;;;5048109;28;20501;-69
2022/03/15 11:01:21;;;;;;;27.20;13.50;;;12.60;42.60;;;;;;5052488;28;20029;-69
2022/03/15 11:04:03;;;;;;;19.65;12.38;;;12.60;42.90;;;;;;5052186;28;20083;-69
2022/03/15 11:06:43;;;;;;;24.27;13.07;;;12.60;42.60;;;;;;5052611;28;20041;-70
2022/03/15 11:09:17;;;;;;;21.15;11.93;;;12.60;42.70;;;;;;5051957;28;20031;-73
2022/03/15 11:11:44;;;;;;;22.52;12.75;;;12.60;43.10;;;;;;5052418;28;20036;-74
2022/03/15 11:14:10;;;;;;;25.10;12.57;;;12.80;43.70;;;;;;5052356;28;20039;-74
2022/03/15 11:16:37;;;;;;;21.52;14.07;;;12.90;43.30;;;;;;5051828;28;20052;-69
2022/03/15 11:19:04;;;;;;;27.63;13.50;;;12.80;42.70;;;;;;5050727;28;20089;-74
2022/03/15 11:21:33;;;;;;;24.60;12.52;;;12.80;42.80;;;;;;5052341;28;20037;-74
2022/03/15 11:24:00;;;;;;;20.83;12.93;;;12.80;42.60;;;;;;5051299;28;20044;-75
2022/03/15 11:26:30;;;;;;;21.13;13.05;;;12.90;42.50;;;;;;5052229;28;20036;-75
2022/03/15 11:28:57;;;;;;;20.35;14.02;;;12.90;42.50;;;;;;5051308;28;20364;-70
2022/03/15 11:31:23;;;;;;;23.58;12.82;;;12.90;42.20;;;;;;5050220;28;20501;-69
2022/03/15 11:33:51;;;;;;;25.55;14.48;;;12.90;41.80;;;;;;5051520;28;20103;-69
2022/03/15 11:36:17;;;;;;;22.17;13.13;;;12.90;42.00;;;;;;5052243;28;20047;-74
2022/03/15 11:38:43;;;;;;;18.52;11.95;;;13.10;42.20;;;;;;5050838;28;20553;-70
2022/03/15 11:41:10;;;;;;;20.95;13.18;;;13.10;41.80;;;;;;5052365;28;20491;-69
2022/03/15 11:44:25;;;;;;;21.67;13.43;;;13.10;41.70;;;;;;5051983;28;20040;-69
2022/03/15 11:47:01;;;;;;;34.35;16.52;;;13.20;41.80;;;;;;5049079;28;20102;-69
2022/03/15 11:49:39;;;;;;;21.38;12.85;;;13.30;41.60;;;;;;5050714;28;20035;-69
2022/03/15 11:52:17;;;;;;;27.05;13.63;;;13.30;40.70;;;;;;5052116;28;20033;-69
2022/03/15 11:55:16;;;;;;;35.22;16.15;;;13.30;40.70;;;;;;5052172;28;20382;-74
2022/03/15 11:57:51;;;;;;;23.45;14.25;;;13.30;40.70;;;;;;5051921;28;20115;-69
2022/03/15 12:00:38;;;;;;;17.48;12.48;;;13.50;40.80;;;;;;5052487;28;20033;-69
2022/03/15 12:03:08;;;;;;;36.15;16.63;;;13.60;40.60;;;;;;5051574;28;20544;-69
2022/03/15 12:05:45;;;;;;;31.35;14.27;;;13.70;40.50;;;;;;5051061;28;20532;-74
2022/03/15 12:08:35;;;;;;;24.67;12.52;;;13.70;40.50;;;;;;5050368;28;20049;-74
2022/03/15 12:11:05;;;;;;;21.45;11.65;;;13.80;39.80;;;;;;5049364;28;20492;-69
2022/03/15 12:13:47;;;;;;;17.27;10.80;;;13.70;39.10;;;;;;5051753;28;20041;-70
2022/03/15 12:16:21;;;;;;;21.02;10.60;;;13.60;39.00;;;;;;5051914;28;20013;-69
2022/03/15 12:19:23;;;;;;;18.73;10.57;;;13.50;38.80;;;;;;5050419;28;20033;-69
2022/03/15 12:22:00;;;;;;;19.30;10.63;;;13.60;39.40;;;;;;5051782;28;20118;-75
2022/03/15 12:24:46;;;;;;;19.38;11.13;;;13.70;39.90;;;;;;5050713;28;20427;-75
2022/03/15 12:27:16;;;;;;;18.83;11.02;;;13.80;40.20;;;;;;5050349;28;20107;-74
2022/03/15 12:29:56;;;;;;;21.10;11.23;;;13.90;40.50;;;;;;5051687;28;20043;-74